Main page
METAR-TAF:

METAR-TAF

Airports :

Siegerland Airport

Siegen, Germany

latitude: 50-42-28N, longitude: 008-04-59E, elevation: 602 m

Current weather observation

The report was made 4 hours and 14 minutes ago, at 17:50 UTC
Wind 6 kt from the West/Northwest
Temperature 6°C
Humidity 39%
Pressure 1015 hPa
Visibility 10 km or more
no clouds below 1500 m and no cumulonimbus

METAR: EDGS 011750Z 29006KT CAVOK 06/M07 Q1015

Time: 00:04 (22:04 UTC)

Forecast

The report was made 5 hours and 4 minutes ago, at 17:00 UTC
Forecast valid from 01 at 18 UTC to 02 at 03 UTC
Wind 5 kt from the North/Northwest
Visibility 10 km or more
no clouds below 1500 m and no cumulonimbus
Becoming
from 01 at 18 UTC to 01 at 21 UTC
Wind 2 kt from variable directions

TAF: EDGS 011700Z 0118/0203 33005KT CAVOK BECMG 0118/0121 VRB02KT

Weather observations and forecasts of more than 4000 airports (METAR and TAF reports).

The available stations are represented by yellow and red dots on the map.

Hover mouse over dot to see the name of the station.

Then click to see weather observations and forecasts.

To change the map : click on the green buttons with a black cross to zoom in, on the green button with a dash to zoom out, or on the green arrows for adjacent maps.


METAR-TAF: